sensor_id;sensor_type;location;lat;lon;timestamp;P1;durP1;ratioP1;P2;durP2;ratioP2
10582;SDS011;33679;51.218;6.786;2023-06-22T00:01:03;5.23;;;2.20;;
10582;SDS011;33679;51.218;6.786;2023-06-22T00:03:36;2.90;;;2.30;;
10582;SDS011;33679;51.218;6.786;2023-06-22T00:06:10;6.50;;;2.37;;
10582;SDS011;33679;51.218;6.786;2023-06-22T00:08:45;3.53;;;2.60;;
10582;SDS011;33679;51.218;6.786;2023-06-22T00:11:17;4.13;;;2.67;;
10582;SDS011;33679;51.218;6.786;2023-06-22T00:13:50;3.80;;;2.40;;
10582;SDS011;33679;51.218;6.786;2023-06-22T00:16:22;2.60;;;2.40;;
10582;SDS011;33679;51.218;6.786;2023-06-22T00:18:55;4.60;;;3.33;;
10582;SDS011;33679;51.218;6.786;2023-06-22T00:21:34;5.17;;;2.63;;
10582;SDS011;33679;51.218;6.786;2023-06-22T00:24:07;3.03;;;2.37;;
10582;SDS011;33679;51.218;6.786;2023-06-22T00:26:40;3.20;;;2.47;;
10582;SDS011;33679;51.218;6.786;2023-06-22T00:29:16;2.60;;;2.30;;
10582;SDS011;33679;51.218;6.786;2023-06-22T00:31:48;5.83;;;2.20;;
10582;SDS011;33679;51.218;6.786;2023-06-22T00:34:21;3.93;;;2.77;;
10582;SDS011;33679;51.218;6.786;2023-06-22T00:36:54;4.60;;;2.50;;
10582;SDS011;33679;51.218;6.786;2023-06-22T00:39:27;4.30;;;2.77;;
10582;SDS011;33679;51.218;6.786;2023-06-22T00:41:59;6.33;;;3.07;;
10582;SDS011;33679;51.218;6.786;2023-06-22T00:44:32;2.80;;;2.20;;
10582;SDS011;33679;51.218;6.786;2023-06-22T00:47:06;3.90;;;2.83;;
10582;SDS011;33679;51.218;6.786;2023-06-22T00:49:39;3.40;;;2.70;;
10582;SDS011;33679;51.218;6.786;2023-06-22T00:52:13;4.60;;;3.07;;
10582;SDS011;33679;51.218;6.786;2023-06-22T00:54:51;8.10;;;3.30;;
10582;SDS011;33679;51.218;6.786;2023-06-22T00:57:24;4.73;;;3.10;;
10582;SDS011;33679;51.218;6.786;2023-06-22T00:59:59;4.60;;;2.30;;
10582;SDS011;33679;51.218;6.786;2023-06-22T01:02:33;3.97;;;2.67;;
10582;SDS011;33679;51.218;6.786;2023-06-22T01:05:07;3.13;;;2.83;;
10582;SDS011;33679;51.218;6.786;2023-06-22T01:07:41;8.30;;;2.73;;
10582;SDS011;33679;51.218;6.786;2023-06-22T01:10:21;6.53;;;3.73;;
10582;SDS011;33679;51.218;6.786;2023-06-22T01:12:59;7.50;;;2.90;;
10582;SDS011;33679;51.218;6.786;2023-06-22T01:15:33;4.83;;;3.33;;
10582;SDS011;33679;51.218;6.786;2023-06-22T01:18:11;6.63;;;4.03;;
10582;SDS011;33679;51.218;6.786;2023-06-22T01:20:47;5.93;;;3.17;;
10582;SDS011;33679;51.218;6.786;2023-06-22T01:23:27;3.10;;;2.57;;
10582;SDS011;33679;51.218;6.786;2023-06-22T01:26:12;4.93;;;3.53;;
10582;SDS011;33679;51.218;6.786;2023-06-22T01:28:53;5.60;;;3.23;;
10582;SDS011;33679;51.218;6.786;2023-06-22T01:31:27;4.13;;;2.80;;
10582;SDS011;33679;51.218;6.786;2023-06-22T01:34:02;6.03;;;3.50;;
10582;SDS011;33679;51.218;6.786;2023-06-22T01:36:36;5.03;;;3.40;;
10582;SDS011;33679;51.218;6.786;2023-06-22T01:39:12;7.13;;;3.60;;
10582;SDS011;33679;51.218;6.786;2023-06-22T01:41:47;5.90;;;3.60;;
10582;SDS011;33679;51.218;6.786;2023-06-22T01:44:21;7.23;;;3.73;;
10582;SDS011;33679;51.218;6.786;2023-06-22T01:46:55;5.23;;;3.87;;
10582;SDS011;33679;51.218;6.786;2023-06-22T01:49:28;5.70;;;3.60;;
10582;SDS011;33679;51.218;6.786;2023-06-22T01:52:01;5.20;;;3.80;;
10582;SDS011;33679;51.218;6.786;2023-06-22T01:54:35;6.43;;;4.30;;
10582;SDS011;33679;51.218;6.786;2023-06-22T01:57:08;6.23;;;3.80;;
10582;SDS011;33679;51.218;6.786;2023-06-22T01:59:47;3.93;;;3.30;;
10582;SDS011;33679;51.218;6.786;2023-06-22T02:02:24;5.93;;;3.63;;
10582;SDS011;33679;51.218;6.786;2023-06-22T02:05:03;5.37;;;3.83;;
10582;SDS011;33679;51.218;6.786;2023-06-22T02:07:41;4.30;;;2.97;;
10582;SDS011;33679;51.218;6.786;2023-06-22T02:10:17;6.30;;;4.30;;
10582;SDS011;33679;51.218;6.786;2023-06-22T02:12:54;4.30;;;3.10;;
10582;SDS011;33679;51.218;6.786;2023-06-22T02:15:29;4.13;;;3.40;;
10582;SDS011;33679;51.218;6.786;2023-06-22T02:18:02;4.53;;;4.00;;
10582;SDS011;33679;51.218;6.786;2023-06-22T02:20:36;5.30;;;4.33;;
10582;SDS011;33679;51.218;6.786;2023-06-22T02:23:09;5.07;;;4.00;;
10582;SDS011;33679;51.218;6.786;2023-06-22T02:25:41;4.83;;;3.80;;
10582;SDS011;33679;51.218;6.786;2023-06-22T02:28:14;10.73;;;5.07;;
10582;SDS011;33679;51.218;6.786;2023-06-22T02:30:50;7.07;;;4.93;;
10582;SDS011;33679;51.218;6.786;2023-06-22T02:33:23;4.03;;;3.60;;
10582;SDS011;33679;51.218;6.786;2023-06-22T02:35:57;4.30;;;3.63;;
10582;SDS011;33679;51.218;6.786;2023-06-22T02:38:30;8.87;;;4.60;;
10582;SDS011;33679;51.218;6.786;2023-06-22T02:41:03;6.23;;;3.83;;
10582;SDS011;33679;51.218;6.786;2023-06-22T02:43:36;5.50;;;4.33;;
10582;SDS011;33679;51.218;6.786;2023-06-22T02:46:10;6.40;;;4.90;;
10582;SDS011;33679;51.218;6.786;2023-06-22T02:48:43;8.47;;;4.70;;
10582;SDS011;33679;51.218;6.786;2023-06-22T02:51:16;6.67;;;4.10;;
10582;SDS011;33679;51.218;6.786;2023-06-22T02:53:48;4.50;;;4.03;;
10582;SDS011;33679;51.218;6.786;2023-06-22T02:56:22;5.90;;;4.70;;
10582;SDS011;33679;51.218;6.786;2023-06-22T02:58:59;7.03;;;4.77;;
10582;SDS011;33679;51.218;6.786;2023-06-22T03:01:38;7.67;;;4.10;;
10582;SDS011;33679;51.218;6.786;2023-06-22T03:04:19;5.50;;;4.50;;
10582;SDS011;33679;51.218;6.786;2023-06-22T03:06:52;6.00;;;3.90;;
10582;SDS011;33679;51.218;6.786;2023-06-22T03:09:24;7.43;;;4.77;;
10582;SDS011;33679;51.218;6.786;2023-06-22T03:12:00;6.50;;;4.77;;
10582;SDS011;33679;51.218;6.786;2023-06-22T03:14:41;4.77;;;4.17;;
10582;SDS011;33679;51.218;6.786;2023-06-22T03:17:15;6.93;;;5.07;;
10582;SDS011;33679;51.218;6.786;2023-06-22T03:19:47;7.27;;;4.80;;
10582;SDS011;33679;51.218;6.786;2023-06-22T03:22:19;6.87;;;4.80;;
10582;SDS011;33679;51.218;6.786;2023-06-22T03:24:53;5.20;;;4.40;;
10582;SDS011;33679;51.218;6.786;2023-06-22T03:27:26;6.67;;;4.03;;
10582;SDS011;33679;51.218;6.786;2023-06-22T03:29:58;9.30;;;5.80;;
10582;SDS011;33679;51.218;6.786;2023-06-22T03:32:32;7.17;;;5.30;;
10582;SDS011;33679;51.218;6.786;2023-06-22T03:35:05;7.80;;;5.17;;
10582;SDS011;33679;51.218;6.786;2023-06-22T03:37:40;7.50;;;4.90;;
10582;SDS011;33679;51.218;6.786;2023-06-22T03:40:12;7.17;;;5.47;;
10582;SDS011;33679;51.218;6.786;2023-06-22T03:42:45;7.70;;;4.93;;
10582;SDS011;33679;51.218;6.786;2023-06-22T03:45:17;6.57;;;4.83;;
10582;SDS011;33679;51.218;6.786;2023-06-22T03:47:52;7.40;;;5.00;;
10582;SDS011;33679;51.218;6.786;2023-06-22T03:50:24;7.70;;;4.73;;
10582;SDS011;33679;51.218;6.786;2023-06-22T03:52:57;7.43;;;5.70;;
10582;SDS011;33679;51.218;6.786;2023-06-22T03:55:29;8.07;;;4.83;;
10582;SDS011;33679;51.218;6.786;2023-06-22T03:58:01;6.60;;;4.93;;
10582;SDS011;33679;51.218;6.786;2023-06-22T04:00:36;8.83;;;5.40;;
10582;SDS011;33679;51.218;6.786;2023-06-22T04:03:09;7.80;;;5.30;;
10582;SDS011;33679;51.218;6.786;2023-06-22T04:05:42;6.37;;;4.70;;
10582;SDS011;33679;51.218;6.786;2023-06-22T04:08:14;7.80;;;5.00;;
10582;SDS011;33679;51.218;6.786;2023-06-22T04:10:47;6.10;;;4.47;;
10582;SDS011;33679;51.218;6.786;2023-06-22T04:13:19;8.50;;;5.33;;
10582;SDS011;33679;51.218;6.786;2023-06-22T04:15:53;5.60;;;4.00;;
10582;SDS011;33679;51.218;6.786;2023-06-22T04:18:26;8.23;;;5.47;;
10582;SDS011;33679;51.218;6.786;2023-06-22T04:20:59;5.73;;;4.83;;
10582;SDS011;33679;51.218;6.786;2023-06-22T04:23:31;5.90;;;4.60;;
10582;SDS011;33679;51.218;6.786;2023-06-22T04:26:03;10.23;;;6.10;;
10582;SDS011;33679;51.218;6.786;2023-06-22T04:28:35;5.97;;;4.70;;
10582;SDS011;33679;51.218;6.786;2023-06-22T04:31:08;7.70;;;5.60;;
10582;SDS011;33679;51.218;6.786;2023-06-22T04:33:41;6.87;;;5.90;;
10582;SDS011;33679;51.218;6.786;2023-06-22T04:36:14;6.37;;;5.60;;
10582;SDS011;33679;51.218;6.786;2023-06-22T04:38:46;8.80;;;5.60;;
10582;SDS011;33679;51.218;6.786;2023-06-22T04:41:22;8.30;;;5.77;;
10582;SDS011;33679;51.218;6.786;2023-06-22T04:43:57;7.43;;;5.27;;
10582;SDS011;33679;51.218;6.786;2023-06-22T04:46:30;6.07;;;4.73;;
10582;SDS011;33679;51.218;6.786;2023-06-22T04:49:08;5.80;;;4.20;;
10582;SDS011;33679;51.218;6.786;2023-06-22T04:51:41;6.67;;;5.23;;
10582;SDS011;33679;51.218;6.786;2023-06-22T04:54:14;6.73;;;5.40;;
10582;SDS011;33679;51.218;6.786;2023-06-22T04:56:46;8.70;;;5.37;;
10582;SDS011;33679;51.218;6.786;2023-06-22T04:59:23;6.53;;;4.90;;
10582;SDS011;33679;51.218;6.786;2023-06-22T05:01:59;8.97;;;5.13;;
10582;SDS011;33679;51.218;6.786;2023-06-22T05:04:34;10.30;;;5.37;;
10582;SDS011;33679;51.218;6.786;2023-06-22T05:07:08;6.00;;;4.17;;
10582;SDS011;33679;51.218;6.786;2023-06-22T05:09:43;5.70;;;4.40;;
10582;SDS011;33679;51.218;6.786;2023-06-22T05:12:16;7.10;;;4.53;;
10582;SDS011;33679;51.218;6.786;2023-06-22T05:14:48;6.70;;;4.80;;
10582;SDS011;33679;51.218;6.786;2023-06-22T05:17:20;7.83;;;5.23;;
10582;SDS011;33679;51.218;6.786;2023-06-22T05:19:54;10.90;;;5.97;;
10582;SDS011;33679;51.218;6.786;2023-06-22T05:22:26;7.23;;;5.07;;
10582;SDS011;33679;51.218;6.786;2023-06-22T05:25:01;14.70;;;6.00;;
10582;SDS011;33679;51.218;6.786;2023-06-22T05:27:34;8.73;;;4.90;;
10582;SDS011;33679;51.218;6.786;2023-06-22T05:30:10;9.90;;;5.00;;
10582;SDS011;33679;51.218;6.786;2023-06-22T05:32:42;5.70;;;4.10;;
10582;SDS011;33679;51.218;6.786;2023-06-22T05:35:16;5.90;;;4.13;;
10582;SDS011;33679;51.218;6.786;2023-06-22T05:37:48;8.30;;;5.47;;
10582;SDS011;33679;51.218;6.786;2023-06-22T05:40:23;10.70;;;4.20;;
10582;SDS011;33679;51.218;6.786;2023-06-22T05:42:57;7.60;;;4.67;;
10582;SDS011;33679;51.218;6.786;2023-06-22T05:45:31;4.90;;;3.40;;
10582;SDS011;33679;51.218;6.786;2023-06-22T05:48:03;5.77;;;5.17;;
10582;SDS011;33679;51.218;6.786;2023-06-22T05:50:37;8.70;;;5.83;;
10582;SDS011;33679;51.218;6.786;2023-06-22T05:53:09;7.47;;;5.50;;
10582;SDS011;33679;51.218;6.786;2023-06-22T05:55:44;6.33;;;4.70;;
10582;SDS011;33679;51.218;6.786;2023-06-22T05:58:17;7.20;;;4.53;;
10582;SDS011;33679;51.218;6.786;2023-06-22T06:00:49;7.17;;;5.30;;
10582;SDS011;33679;51.218;6.786;2023-06-22T06:03:21;5.83;;;4.80;;
10582;SDS011;33679;51.218;6.786;2023-06-22T06:05:55;6.87;;;5.53;;
10582;SDS011;33679;51.218;6.786;2023-06-22T06:08:29;9.50;;;6.20;;
10582;SDS011;33679;51.218;6.786;2023-06-22T06:11:01;8.60;;;5.90;;
10582;SDS011;33679;51.218;6.786;2023-06-22T06:13:34;8.43;;;5.47;;
10582;SDS011;33679;51.218;6.786;2023-06-22T06:16:07;6.87;;;5.50;;
10582;SDS011;33679;51.218;6.786;2023-06-22T06:18:39;6.63;;;5.17;;
10582;SDS011;33679;51.218;6.786;2023-06-22T06:21:12;12.50;;;6.60;;
10582;SDS011;33679;51.218;6.786;2023-06-22T06:23:45;6.23;;;4.97;;
10582;SDS011;33679;51.218;6.786;2023-06-22T06:26:17;7.60;;;6.10;;
10582;SDS011;33679;51.218;6.786;2023-06-22T06:28:59;8.97;;;6.00;;
10582;SDS011;33679;51.218;6.786;2023-06-22T06:31:32;7.17;;;5.53;;
10582;SDS011;33679;51.218;6.786;2023-06-22T06:34:04;13.10;;;6.40;;
10582;SDS011;33679;51.218;6.786;2023-06-22T06:36:39;8.13;;;5.67;;
10582;SDS011;33679;51.218;6.786;2023-06-22T06:39:12;7.97;;;5.50;;
10582;SDS011;33679;51.218;6.786;2023-06-22T06:41:46;6.50;;;4.90;;
10582;SDS011;33679;51.218;6.786;2023-06-22T06:44:19;7.93;;;5.30;;
10582;SDS011;33679;51.218;6.786;2023-06-22T06:46:52;7.53;;;5.80;;
10582;SDS011;33679;51.218;6.786;2023-06-22T06:49:28;7.20;;;5.57;;
10582;SDS011;33679;51.218;6.786;2023-06-22T06:52:02;8.87;;;5.87;;
10582;SDS011;33679;51.218;6.786;2023-06-22T06:54:37;7.83;;;5.10;;
10582;SDS011;33679;51.218;6.786;2023-06-22T06:57:09;6.93;;;6.17;;
10582;SDS011;33679;51.218;6.786;2023-06-22T06:59:43;7.10;;;5.50;;
10582;SDS011;33679;51.218;6.786;2023-06-22T07:02:29;14.03;;;7.40;;
10582;SDS011;33679;51.218;6.786;2023-06-22T07:05:04;8.07;;;6.00;;
10582;SDS011;33679;51.218;6.786;2023-06-22T07:07:38;9.00;;;6.30;;
10582;SDS011;33679;51.218;6.786;2023-06-22T07:10:12;9.80;;;6.60;;
10582;SDS011;33679;51.218;6.786;2023-06-22T07:12:46;8.50;;;6.13;;
10582;SDS011;33679;51.218;6.786;2023-06-22T07:15:18;9.70;;;6.47;;
10582;SDS011;33679;51.218;6.786;2023-06-22T07:17:50;8.00;;;6.20;;
10582;SDS011;33679;51.218;6.786;2023-06-22T07:20:22;12.00;;;8.10;;
10582;SDS011;33679;51.218;6.786;2023-06-22T07:22:56;9.07;;;6.00;;
10582;SDS011;33679;51.218;6.786;2023-06-22T07:25:28;11.43;;;6.20;;
10582;SDS011;33679;51.218;6.786;2023-06-22T07:28:02;10.10;;;7.20;;
10582;SDS011;33679;51.218;6.786;2023-06-22T07:30:35;10.30;;;6.77;;
10582;SDS011;33679;51.218;6.786;2023-06-22T07:33:09;9.50;;;7.03;;
10582;SDS011;33679;51.218;6.786;2023-06-22T07:35:41;15.60;;;8.90;;
10582;SDS011;33679;51.218;6.786;2023-06-22T07:38:19;11.70;;;7.10;;
10582;SDS011;33679;51.218;6.786;2023-06-22T07:40:52;12.80;;;8.80;;
10582;SDS011;33679;51.218;6.786;2023-06-22T07:43:25;10.50;;;8.30;;
10582;SDS011;33679;51.218;6.786;2023-06-22T07:45:57;13.20;;;8.50;;
10582;SDS011;33679;51.218;6.786;2023-06-22T07:48:33;11.87;;;8.43;;
10582;SDS011;33679;51.218;6.786;2023-06-22T07:51:09;9.17;;;6.93;;
10582;SDS011;33679;51.218;6.786;2023-06-22T07:53:44;11.77;;;6.90;;
10582;SDS011;33679;51.218;6.786;2023-06-22T07:56:17;10.47;;;8.03;;
10582;SDS011;33679;51.218;6.786;2023-06-22T07:58:50;10.73;;;6.80;;
10582;SDS011;33679;51.218;6.786;2023-06-22T08:01:25;8.83;;;6.33;;
10582;SDS011;33679;51.218;6.786;2023-06-22T08:03:57;8.27;;;6.83;;
10582;SDS011;33679;51.218;6.786;2023-06-22T08:06:30;12.10;;;7.37;;
10582;SDS011;33679;51.218;6.786;2023-06-22T08:09:05;10.53;;;8.30;;
10582;SDS011;33679;51.218;6.786;2023-06-22T08:11:38;15.43;;;10.27;;
10582;SDS011;33679;51.218;6.786;2023-06-22T08:14:13;14.57;;;9.47;;
10582;SDS011;33679;51.218;6.786;2023-06-22T08:16:45;11.80;;;8.60;;
10582;SDS011;33679;51.218;6.786;2023-06-22T08:19:17;8.80;;;6.40;;
10582;SDS011;33679;51.218;6.786;2023-06-22T08:21:49;9.30;;;5.90;;
10582;SDS011;33679;51.218;6.786;2023-06-22T08:24:23;7.50;;;6.23;;
10582;SDS011;33679;51.218;6.786;2023-06-22T08:26:58;7.10;;;5.90;;
10582;SDS011;33679;51.218;6.786;2023-06-22T08:29:30;8.10;;;5.87;;
10582;SDS011;33679;51.218;6.786;2023-06-22T08:32:04;6.40;;;5.60;;
10582;SDS011;33679;51.218;6.786;2023-06-22T08:34:37;6.33;;;4.90;;
10582;SDS011;33679;51.218;6.786;2023-06-22T08:37:12;9.27;;;5.93;;
10582;SDS011;33679;51.218;6.786;2023-06-22T08:39:47;7.20;;;5.37;;
10582;SDS011;33679;51.218;6.786;2023-06-22T08:42:20;6.13;;;5.00;;
10582;SDS011;33679;51.218;6.786;2023-06-22T08:44:53;6.93;;;5.07;;
10582;SDS011;33679;51.218;6.786;2023-06-22T08:47:26;8.13;;;5.60;;
10582;SDS011;33679;51.218;6.786;2023-06-22T08:49:59;8.23;;;5.87;;
10582;SDS011;33679;51.218;6.786;2023-06-22T08:52:33;8.13;;;5.63;;
10582;SDS011;33679;51.218;6.786;2023-06-22T08:55:08;9.83;;;5.70;;
10582;SDS011;33679;51.218;6.786;2023-06-22T08:57:41;8.13;;;6.03;;
10582;SDS011;33679;51.218;6.786;2023-06-22T09:00:14;6.13;;;5.50;;
10582;SDS011;33679;51.218;6.786;2023-06-22T09:02:49;5.90;;;5.03;;
10582;SDS011;33679;51.218;6.786;2023-06-22T09:05:22;7.97;;;4.93;;
10582;SDS011;33679;51.218;6.786;2023-06-22T09:07:55;5.60;;;4.60;;
10582;SDS011;33679;51.218;6.786;2023-06-22T09:10:30;6.60;;;5.03;;
10582;SDS011;33679;51.218;6.786;2023-06-22T09:13:02;7.20;;;5.50;;
10582;SDS011;33679;51.218;6.786;2023-06-22T09:15:35;6.73;;;5.23;;
10582;SDS011;33679;51.218;6.786;2023-06-22T09:18:10;7.47;;;5.87;;
10582;SDS011;33679;51.218;6.786;2023-06-22T09:20:46;6.93;;;5.73;;
10582;SDS011;33679;51.218;6.786;2023-06-22T09:23:18;7.17;;;6.00;;
10582;SDS011;33679;51.218;6.786;2023-06-22T09:25:51;7.40;;;5.73;;
10582;SDS011;33679;51.218;6.786;2023-06-22T09:28:27;7.00;;;5.30;;
10582;SDS011;33679;51.218;6.786;2023-06-22T09:30:59;7.20;;;4.50;;
10582;SDS011;33679;51.218;6.786;2023-06-22T09:33:32;6.67;;;4.70;;
10582;SDS011;33679;51.218;6.786;2023-06-22T09:36:04;6.17;;;4.53;;
10582;SDS011;33679;51.218;6.786;2023-06-22T09:38:38;5.60;;;4.10;;
10582;SDS011;33679;51.218;6.786;2023-06-22T09:41:13;5.03;;;4.53;;
10582;SDS011;33679;51.218;6.786;2023-06-22T09:43:46;5.30;;;4.50;;
10582;SDS011;33679;51.218;6.786;2023-06-22T09:46:19;6.00;;;4.60;;
10582;SDS011;33679;51.218;6.786;2023-06-22T09:49:07;5.73;;;4.60;;
10582;SDS011;33679;51.218;6.786;2023-06-22T09:52:11;6.00;;;4.50;;
10582;SDS011;33679;51.218;6.786;2023-06-22T09:54:43;4.93;;;4.20;;
10582;SDS011;33679;51.218;6.786;2023-06-22T09:57:17;7.03;;;4.43;;
10582;SDS011;33679;51.218;6.786;2023-06-22T09:59:52;8.03;;;4.50;;
10582;SDS011;33679;51.218;6.786;2023-06-22T10:02:24;7.80;;;4.90;;
10582;SDS011;33679;51.218;6.786;2023-06-22T10:04:56;4.90;;;4.40;;
10582;SDS011;33679;51.218;6.786;2023-06-22T10:07:29;5.60;;;4.30;;
10582;SDS011;33679;51.218;6.786;2023-06-22T10:10:01;7.50;;;4.73;;
10582;SDS011;33679;51.218;6.786;2023-06-22T10:12:45;5.37;;;4.30;;
10582;SDS011;33679;51.218;6.786;2023-06-22T10:15:18;5.70;;;4.13;;
10582;SDS011;33679;51.218;6.786;2023-06-22T10:17:51;7.27;;;5.20;;
10582;SDS011;33679;51.218;6.786;2023-06-22T10:20:24;5.33;;;4.30;;
10582;SDS011;33679;51.218;6.786;2023-06-22T10:22:57;6.57;;;5.30;;
10582;SDS011;33679;51.218;6.786;2023-06-22T10:25:31;6.90;;;5.00;;
10582;SDS011;33679;51.218;6.786;2023-06-22T10:28:05;6.33;;;5.60;;
10582;SDS011;33679;51.218;6.786;2023-06-22T10:30:38;8.40;;;5.37;;
10582;SDS011;33679;51.218;6.786;2023-06-22T10:33:12;6.63;;;4.93;;
10582;SDS011;33679;51.218;6.786;2023-06-22T10:35:44;6.23;;;5.60;;
10582;SDS011;33679;51.218;6.786;2023-06-22T10:38:17;4.90;;;4.40;;
10582;SDS011;33679;51.218;6.786;2023-06-22T10:40:49;6.20;;;5.10;;
10582;SDS011;33679;51.218;6.786;2023-06-22T10:43:24;10.13;;;6.00;;
10582;SDS011;33679;51.218;6.786;2023-06-22T10:46:01;7.07;;;5.93;;
10582;SDS011;33679;51.218;6.786;2023-06-22T10:48:34;7.90;;;5.33;;
10582;SDS011;33679;51.218;6.786;2023-06-22T10:51:07;5.63;;;4.87;;
10582;SDS011;33679;51.218;6.786;2023-06-22T10:53:39;8.13;;;6.10;;
10582;SDS011;33679;51.218;6.786;2023-06-22T10:56:13;12.50;;;8.37;;
10582;SDS011;33679;51.218;6.786;2023-06-22T10:58:47;9.50;;;6.97;;
10582;SDS011;33679;51.218;6.786;2023-06-22T11:01:20;7.97;;;6.23;;
10582;SDS011;33679;51.218;6.786;2023-06-22T11:03:52;10.90;;;6.83;;
10582;SDS011;33679;51.218;6.786;2023-06-22T11:06:27;9.73;;;6.50;;
10582;SDS011;33679;51.218;6.786;2023-06-22T11:08:59;8.37;;;6.07;;
10582;SDS011;33679;51.218;6.786;2023-06-22T11:11:31;11.33;;;6.63;;
10582;SDS011;33679;51.218;6.786;2023-06-22T11:14:05;8.67;;;6.23;;
10582;SDS011;33679;51.218;6.786;2023-06-22T11:16:38;11.83;;;6.17;;
10582;SDS011;33679;51.218;6.786;2023-06-22T11:19:10;20.30;;;14.80;;
10582;SDS011;33679;51.218;6.786;2023-06-22T11:21:46;14.13;;;9.20;;
10582;SDS011;33679;51.218;6.786;2023-06-22T11:24:19;9.10;;;6.60;;
10582;SDS011;33679;51.218;6.786;2023-06-22T11:26:52;10.10;;;6.93;;
10582;SDS011;33679;51.218;6.786;2023-06-22T11:29:28;8.00;;;6.37;;
10582;SDS011;33679;51.218;6.786;2023-06-22T11:32:06;18.60;;;8.77;;
10582;SDS011;33679;51.218;6.786;2023-06-22T11:34:41;10.20;;;7.77;;
10582;SDS011;33679;51.218;6.786;2023-06-22T11:37:13;15.70;;;9.77;;
10582;SDS011;33679;51.218;6.786;2023-06-22T11:39:52;12.47;;;8.03;;
10582;SDS011;33679;51.218;6.786;2023-06-22T11:42:26;14.20;;;9.83;;
10582;SDS011;33679;51.218;6.786;2023-06-22T11:45:04;12.93;;;9.77;;
10582;SDS011;33679;51.218;6.786;2023-06-22T11:47:39;13.50;;;10.30;;
10582;SDS011;33679;51.218;6.786;2023-06-22T11:50:12;13.60;;;9.80;;
10582;SDS011;33679;51.218;6.786;2023-06-22T11:52:44;14.50;;;10.80;;
10582;SDS011;33679;51.218;6.786;2023-06-22T11:55:19;13.00;;;10.10;;
10582;SDS011;33679;51.218;6.786;2023-06-22T11:57:53;16.10;;;11.43;;
10582;SDS011;33679;51.218;6.786;2023-06-22T12:00:30;12.73;;;9.37;;
10582;SDS011;33679;51.218;6.786;2023-06-22T12:03:03;13.60;;;10.20;;
10582;SDS011;33679;51.218;6.786;2023-06-22T12:05:39;20.73;;;12.30;;
10582;SDS011;33679;51.218;6.786;2023-06-22T12:08:12;13.40;;;9.47;;
10582;SDS011;33679;51.218;6.786;2023-06-22T12:10:45;15.33;;;11.00;;
10582;SDS011;33679;51.218;6.786;2023-06-22T12:13:17;11.80;;;9.50;;
10582;SDS011;33679;51.218;6.786;2023-06-22T12:15:51;14.17;;;9.50;;
10582;SDS011;33679;51.218;6.786;2023-06-22T12:18:24;13.70;;;10.70;;
10582;SDS011;33679;51.218;6.786;2023-06-22T12:20:56;16.83;;;12.10;;
10582;SDS011;33679;51.218;6.786;2023-06-22T12:23:28;17.80;;;13.37;;
10582;SDS011;33679;51.218;6.786;2023-06-22T12:26:04;13.43;;;10.63;;
10582;SDS011;33679;51.218;6.786;2023-06-22T12:28:37;13.43;;;9.70;;
10582;SDS011;33679;51.218;6.786;2023-06-22T12:31:11;22.63;;;14.10;;
10582;SDS011;33679;51.218;6.786;2023-06-22T12:33:43;14.83;;;11.90;;
10582;SDS011;33679;51.218;6.786;2023-06-22T12:36:16;18.93;;;13.87;;
10582;SDS011;33679;51.218;6.786;2023-06-22T12:38:50;18.27;;;13.83;;
10582;SDS011;33679;51.218;6.786;2023-06-22T12:41:23;15.00;;;12.30;;
10582;SDS011;33679;51.218;6.786;2023-06-22T12:43:55;22.47;;;13.17;;
10582;SDS011;33679;51.218;6.786;2023-06-22T12:46:29;22.50;;;16.10;;
10582;SDS011;33679;51.218;6.786;2023-06-22T12:49:08;17.57;;;14.23;;
10582;SDS011;33679;51.218;6.786;2023-06-22T12:51:40;23.17;;;16.00;;
10582;SDS011;33679;51.218;6.786;2023-06-22T12:54:13;21.77;;;16.60;;
10582;SDS011;33679;51.218;6.786;2023-06-22T12:56:50;21.00;;;16.37;;
10582;SDS011;33679;51.218;6.786;2023-06-22T12:59:32;18.00;;;14.37;;
10582;SDS011;33679;51.218;6.786;2023-06-22T13:02:05;21.30;;;15.93;;
10582;SDS011;33679;51.218;6.786;2023-06-22T13:04:39;21.37;;;16.70;;
10582;SDS011;33679;51.218;6.786;2023-06-22T13:07:12;21.53;;;16.97;;
10582;SDS011;33679;51.218;6.786;2023-06-22T13:09:45;21.13;;;15.70;;
10582;SDS011;33679;51.218;6.786;2023-06-22T13:12:21;19.40;;;16.57;;
10582;SDS011;33679;51.218;6.786;2023-06-22T13:14:54;19.50;;;15.20;;
10582;SDS011;33679;51.218;6.786;2023-06-22T13:17:28;26.50;;;16.43;;
10582;SDS011;33679;51.218;6.786;2023-06-22T13:20:01;21.43;;;16.43;;
10582;SDS011;33679;51.218;6.786;2023-06-22T13:22:35;23.97;;;17.60;;
10582;SDS011;33679;51.218;6.786;2023-06-22T13:25:10;27.43;;;17.07;;
10582;SDS011;33679;51.218;6.786;2023-06-22T13:27:51;22.73;;;17.00;;
10582;SDS011;33679;51.218;6.786;2023-06-22T13:30:25;24.07;;;17.50;;
10582;SDS011;33679;51.218;6.786;2023-06-22T13:33:02;19.43;;;14.00;;
10582;SDS011;33679;51.218;6.786;2023-06-22T13:35:35;21.20;;;16.83;;
10582;SDS011;33679;51.218;6.786;2023-06-22T13:38:08;22.73;;;16.10;;
10582;SDS011;33679;51.218;6.786;2023-06-22T13:40:43;21.50;;;16.50;;
10582;SDS011;33679;51.218;6.786;2023-06-22T13:43:16;23.87;;;18.00;;
10582;SDS011;33679;51.218;6.786;2023-06-22T13:45:50;18.10;;;14.47;;
10582;SDS011;33679;51.218;6.786;2023-06-22T13:48:24;19.10;;;15.20;;
10582;SDS011;33679;51.218;6.786;2023-06-22T13:51:01;22.37;;;15.70;;
10582;SDS011;33679;51.218;6.786;2023-06-22T13:53:34;20.10;;;14.43;;
10582;SDS011;33679;51.218;6.786;2023-06-22T13:56:07;22.30;;;15.70;;
10582;SDS011;33679;51.218;6.786;2023-06-22T13:58:40;15.17;;;12.07;;
10582;SDS011;33679;51.218;6.786;2023-06-22T14:01:19;22.10;;;14.77;;
10582;SDS011;33679;51.218;6.786;2023-06-22T14:03:53;21.87;;;15.70;;
10582;SDS011;33679;51.218;6.786;2023-06-22T14:06:27;22.13;;;14.17;;
10582;SDS011;33679;51.218;6.786;2023-06-22T14:09:00;17.70;;;13.97;;
10582;SDS011;33679;51.218;6.786;2023-06-22T14:11:34;21.23;;;14.63;;
10582;SDS011;33679;51.218;6.786;2023-06-22T14:14:08;19.17;;;14.47;;
10582;SDS011;33679;51.218;6.786;2023-06-22T14:16:40;17.70;;;14.33;;
10582;SDS011;33679;51.218;6.786;2023-06-22T14:19:18;18.30;;;14.77;;
10582;SDS011;33679;51.218;6.786;2023-06-22T14:21:50;20.70;;;14.30;;
10582;SDS011;33679;51.218;6.786;2023-06-22T14:24:23;17.37;;;13.37;;
10582;SDS011;33679;51.218;6.786;2023-06-22T14:26:57;18.33;;;11.83;;
10582;SDS011;33679;51.218;6.786;2023-06-22T14:29:33;20.93;;;15.60;;
10582;SDS011;33679;51.218;6.786;2023-06-22T14:32:06;19.27;;;14.67;;
10582;SDS011;33679;51.218;6.786;2023-06-22T14:34:43;17.30;;;14.33;;
10582;SDS011;33679;51.218;6.786;2023-06-22T14:37:15;20.60;;;14.20;;
10582;SDS011;33679;51.218;6.786;2023-06-22T14:39:48;20.47;;;15.03;;
10582;SDS011;33679;51.218;6.786;2023-06-22T14:42:20;18.70;;;14.63;;
10582;SDS011;33679;51.218;6.786;2023-06-22T14:44:53;18.50;;;13.87;;
10582;SDS011;33679;51.218;6.786;2023-06-22T14:47:25;19.77;;;13.50;;
10582;SDS011;33679;51.218;6.786;2023-06-22T14:50:04;17.27;;;12.57;;
10582;SDS011;33679;51.218;6.786;2023-06-22T14:52:37;19.90;;;14.90;;
10582;SDS011;33679;51.218;6.786;2023-06-22T14:55:09;18.30;;;14.03;;
10582;SDS011;33679;51.218;6.786;2023-06-22T14:57:45;17.30;;;13.40;;
10582;SDS011;33679;51.218;6.786;2023-06-22T15:00:19;16.83;;;13.53;;
10582;SDS011;33679;51.218;6.786;2023-06-22T15:02:53;19.80;;;15.27;;
10582;SDS011;33679;51.218;6.786;2023-06-22T15:05:31;25.33;;;14.20;;
10582;SDS011;33679;51.218;6.786;2023-06-22T15:08:11;19.40;;;14.30;;
10582;SDS011;33679;51.218;6.786;2023-06-22T15:10:45;17.70;;;13.63;;
10582;SDS011;33679;51.218;6.786;2023-06-22T15:13:20;19.03;;;14.63;;
10582;SDS011;33679;51.218;6.786;2023-06-22T15:15:53;16.23;;;12.77;;
10582;SDS011;33679;51.218;6.786;2023-06-22T15:18:25;16.83;;;12.03;;
10582;SDS011;33679;51.218;6.786;2023-06-22T15:21:17;17.43;;;11.03;;